sensor_id;sensor_type;location;lat;lon;timestamp;temperature;humidity
52899;DHT22;38763;53.096;6.062;2023-12-14T00:01:43;5.10;99.90
52899;DHT22;38763;53.096;6.062;2023-12-14T00:04:11;5.10;99.90
52899;DHT22;38763;53.096;6.062;2023-12-14T00:06:37;5.10;99.90
52899;DHT22;38763;53.096;6.062;2023-12-14T00:09:03;5.10;99.90
52899;DHT22;38763;53.096;6.062;2023-12-14T00:11:28;5.10;99.90
52899;DHT22;38763;53.096;6.062;2023-12-14T00:13:54;5.10;99.90
52899;DHT22;38763;53.096;6.062;2023-12-14T00:16:20;5.10;99.90
52899;DHT22;38763;53.096;6.062;2023-12-14T00:18:45;5.10;99.90
52899;DHT22;38763;53.096;6.062;2023-12-14T00:21:11;5.10;99.90
52899;DHT22;38763;53.096;6.062;2023-12-14T00:23:37;5.00;99.90
52899;DHT22;38763;53.096;6.062;2023-12-14T00:26:02;5.10;99.90
52899;DHT22;38763;53.096;6.062;2023-12-14T00:28:28;5.00;99.90
52899;DHT22;38763;53.096;6.062;2023-12-14T00:30:54;5.00;99.90
52899;DHT22;38763;53.096;6.062;2023-12-14T00:33:19;5.00;99.90
52899;DHT22;38763;53.096;6.062;2023-12-14T00:35:45;5.00;99.90
52899;DHT22;38763;53.096;6.062;2023-12-14T00:38:11;5.00;99.90
52899;DHT22;38763;53.096;6.062;2023-12-14T00:40:36;5.00;99.90
52899;DHT22;38763;53.096;6.062;2023-12-14T00:43:02;5.00;99.90
52899;DHT22;38763;53.096;6.062;2023-12-14T00:45:27;4.90;99.90
52899;DHT22;38763;53.096;6.062;2023-12-14T00:47:53;4.90;99.90
52899;DHT22;38763;53.096;6.062;2023-12-14T00:50:18;4.90;99.90
52899;DHT22;38763;53.096;6.062;2023-12-14T00:52:44;4.90;99.90
52899;DHT22;38763;53.096;6.062;2023-12-14T00:55:10;4.90;99.90
52899;DHT22;38763;53.096;6.062;2023-12-14T00:57:35;4.90;99.90
52899;DHT22;38763;53.096;6.062;2023-12-14T01:00:01;4.90;99.90
52899;DHT22;38763;53.096;6.062;2023-12-14T01:02:26;4.90;99.90
52899;DHT22;38763;53.096;6.062;2023-12-14T01:04:52;4.90;99.90
52899;DHT22;38763;53.096;6.062;2023-12-14T01:07:17;4.80;99.90
52899;DHT22;38763;53.096;6.062;2023-12-14T01:09:43;4.90;99.90
52899;DHT22;38763;53.096;6.062;2023-12-14T01:12:09;4.90;99.90
52899;DHT22;38763;53.096;6.062;2023-12-14T01:14:34;4.80;99.90
52899;DHT22;38763;53.096;6.062;2023-12-14T01:17:00;4.80;99.90
52899;DHT22;38763;53.096;6.062;2023-12-14T01:19:26;4.80;99.90
52899;DHT22;38763;53.096;6.062;2023-12-14T01:21:52;4.80;99.90
52899;DHT22;38763;53.096;6.062;2023-12-14T01:24:17;4.80;99.90
52899;DHT22;38763;53.096;6.062;2023-12-14T01:26:43;4.80;99.90
52899;DHT22;38763;53.096;6.062;2023-12-14T01:29:08;4.80;99.90
52899;DHT22;38763;53.096;6.062;2023-12-14T01:31:34;4.70;99.90
52899;DHT22;38763;53.096;6.062;2023-12-14T01:33:59;4.70;99.90
52899;DHT22;38763;53.096;6.062;2023-12-14T01:36:26;4.70;99.90
52899;DHT22;38763;53.096;6.062;2023-12-14T01:38:52;4.70;99.90
52899;DHT22;38763;53.096;6.062;2023-12-14T01:41:18;4.70;99.90
52899;DHT22;38763;53.096;6.062;2023-12-14T01:43:44;4.70;99.90
52899;DHT22;38763;53.096;6.062;2023-12-14T01:46:10;4.70;99.90
52899;DHT22;38763;53.096;6.062;2023-12-14T01:48:36;4.70;99.90
52899;DHT22;38763;53.096;6.062;2023-12-14T01:51:02;4.70;99.90
52899;DHT22;38763;53.096;6.062;2023-12-14T01:53:28;4.70;99.90
52899;DHT22;38763;53.096;6.062;2023-12-14T01:55:53;4.70;99.90
52899;DHT22;38763;53.096;6.062;2023-12-14T01:58:20;4.70;99.90
52899;DHT22;38763;53.096;6.062;2023-12-14T02:03:16;4.70;99.90
52899;DHT22;38763;53.096;6.062;2023-12-14T02:05:41;4.70;99.90
52899;DHT22;38763;53.096;6.062;2023-12-14T02:08:07;4.70;99.90
52899;DHT22;38763;53.096;6.062;2023-12-14T02:10:34;4.70;99.90
52899;DHT22;38763;53.096;6.062;2023-12-14T02:13:02;4.70;99.90
52899;DHT22;38763;53.096;6.062;2023-12-14T02:15:28;4.70;99.90
52899;DHT22;38763;53.096;6.062;2023-12-14T02:17:54;4.70;99.90
52899;DHT22;38763;53.096;6.062;2023-12-14T02:20:19;4.70;99.90
52899;DHT22;38763;53.096;6.062;2023-12-14T02:22:48;4.80;99.90
52899;DHT22;38763;53.096;6.062;2023-12-14T02:25:16;4.80;99.90
52899;DHT22;38763;53.096;6.062;2023-12-14T02:27:41;4.70;99.90
52899;DHT22;38763;53.096;6.062;2023-12-14T02:30:08;4.70;99.90
52899;DHT22;38763;53.096;6.062;2023-12-14T02:32:34;4.70;99.90
52899;DHT22;38763;53.096;6.062;2023-12-14T02:34:59;4.80;99.90
52899;DHT22;38763;53.096;6.062;2023-12-14T02:37:25;4.70;99.90
52899;DHT22;38763;53.096;6.062;2023-12-14T02:39:50;4.80;99.90
52899;DHT22;38763;53.096;6.062;2023-12-14T02:42:16;4.80;99.90
52899;DHT22;38763;53.096;6.062;2023-12-14T02:44:42;4.70;99.90
52899;DHT22;38763;53.096;6.062;2023-12-14T02:47:07;4.80;99.90
52899;DHT22;38763;53.096;6.062;2023-12-14T02:49:33;4.80;99.90
52899;DHT22;38763;53.096;6.062;2023-12-14T02:51:59;4.80;99.90
52899;DHT22;38763;53.096;6.062;2023-12-14T02:54:24;4.70;99.90
52899;DHT22;38763;53.096;6.062;2023-12-14T02:56:50;4.70;99.90
52899;DHT22;38763;53.096;6.062;2023-12-14T02:59:16;4.70;99.90
52899;DHT22;38763;53.096;6.062;2023-12-14T03:01:41;4.70;99.90
52899;DHT22;38763;53.096;6.062;2023-12-14T03:04:07;4.80;99.90
52899;DHT22;38763;53.096;6.062;2023-12-14T03:06:33;4.70;99.90
52899;DHT22;38763;53.096;6.062;2023-12-14T03:08:59;4.70;99.90
52899;DHT22;38763;53.096;6.062;2023-12-14T03:11:25;4.80;99.90
52899;DHT22;38763;53.096;6.062;2023-12-14T03:13:51;4.70;99.90
52899;DHT22;38763;53.096;6.062;2023-12-14T03:16:18;4.70;99.90
52899;DHT22;38763;53.096;6.062;2023-12-14T03:18:44;4.70;99.90
52899;DHT22;38763;53.096;6.062;2023-12-14T03:21:10;4.70;99.90
52899;DHT22;38763;53.096;6.062;2023-12-14T03:23:36;4.80;99.90
52899;DHT22;38763;53.096;6.062;2023-12-14T03:26:02;4.80;99.90
52899;DHT22;38763;53.096;6.062;2023-12-14T03:28:28;4.70;99.90
52899;DHT22;38763;53.096;6.062;2023-12-14T03:30:54;4.80;99.90
52899;DHT22;38763;53.096;6.062;2023-12-14T03:33:19;4.70;99.90
52899;DHT22;38763;53.096;6.062;2023-12-14T03:35:45;4.70;99.90
52899;DHT22;38763;53.096;6.062;2023-12-14T03:38:13;4.70;99.90
52899;DHT22;38763;53.096;6.062;2023-12-14T03:40:39;4.80;99.90
52899;DHT22;38763;53.096;6.062;2023-12-14T03:43:05;4.70;99.90
52899;DHT22;38763;53.096;6.062;2023-12-14T03:45:30;4.70;99.90
52899;DHT22;38763;53.096;6.062;2023-12-14T03:47:56;4.70;99.90
52899;DHT22;38763;53.096;6.062;2023-12-14T03:50:22;4.70;99.90
52899;DHT22;38763;53.096;6.062;2023-12-14T03:52:48;4.70;99.90
52899;DHT22;38763;53.096;6.062;2023-12-14T03:55:13;4.70;99.90
52899;DHT22;38763;53.096;6.062;2023-12-14T03:57:41;4.80;99.90
52899;DHT22;38763;53.096;6.062;2023-12-14T04:00:10;4.70;99.90
52899;DHT22;38763;53.096;6.062;2023-12-14T04:02:36;4.80;99.90
52899;DHT22;38763;53.096;6.062;2023-12-14T04:05:01;4.80;99.90
52899;DHT22;38763;53.096;6.062;2023-12-14T04:07:27;4.80;99.90
52899;DHT22;38763;53.096;6.062;2023-12-14T04:09:52;4.80;99.90
52899;DHT22;38763;53.096;6.062;2023-12-14T04:12:18;4.80;99.90
52899;DHT22;38763;53.096;6.062;2023-12-14T04:14:44;4.70;99.90
52899;DHT22;38763;53.096;6.062;2023-12-14T04:17:10;4.80;99.90
52899;DHT22;38763;53.096;6.062;2023-12-14T04:19:38;4.80;99.90
52899;DHT22;38763;53.096;6.062;2023-12-14T04:22:04;4.70;99.90
52899;DHT22;38763;53.096;6.062;2023-12-14T04:24:30;4.70;99.90
52899;DHT22;38763;53.096;6.062;2023-12-14T04:26:56;4.70;99.90
52899;DHT22;38763;53.096;6.062;2023-12-14T04:29:21;4.70;99.90
52899;DHT22;38763;53.096;6.062;2023-12-14T04:31:47;4.70;99.90
52899;DHT22;38763;53.096;6.062;2023-12-14T04:34:13;4.70;99.90
52899;DHT22;38763;53.096;6.062;2023-12-14T04:36:45;4.70;99.90
52899;DHT22;38763;53.096;6.062;2023-12-14T04:39:11;4.70;99.90
52899;DHT22;38763;53.096;6.062;2023-12-14T04:41:37;4.70;99.90
52899;DHT22;38763;53.096;6.062;2023-12-14T04:44:03;4.70;99.90
52899;DHT22;38763;53.096;6.062;2023-12-14T04:46:29;4.70;99.90
52899;DHT22;38763;53.096;6.062;2023-12-14T04:48:55;4.70;99.90
52899;DHT22;38763;53.096;6.062;2023-12-14T04:51:21;4.70;99.90
52899;DHT22;38763;53.096;6.062;2023-12-14T04:53:47;4.70;99.90
52899;DHT22;38763;53.096;6.062;2023-12-14T04:56:12;4.70;99.90
52899;DHT22;38763;53.096;6.062;2023-12-14T04:58:39;4.80;99.90
52899;DHT22;38763;53.096;6.062;2023-12-14T05:01:05;4.70;99.90
52899;DHT22;38763;53.096;6.062;2023-12-14T05:03:31;4.70;99.90
52899;DHT22;38763;53.096;6.062;2023-12-14T05:05:56;4.70;99.90
52899;DHT22;38763;53.096;6.062;2023-12-14T05:08:22;4.70;99.90
52899;DHT22;38763;53.096;6.062;2023-12-14T05:10:48;4.80;99.90
52899;DHT22;38763;53.096;6.062;2023-12-14T05:13:13;4.80;99.90
52899;DHT22;38763;53.096;6.062;2023-12-14T05:15:39;4.70;99.90
52899;DHT22;38763;53.096;6.062;2023-12-14T05:18:04;4.70;99.90
52899;DHT22;38763;53.096;6.062;2023-12-14T05:20:30;4.70;99.90
52899;DHT22;38763;53.096;6.062;2023-12-14T05:22:56;4.70;99.90
52899;DHT22;38763;53.096;6.062;2023-12-14T05:25:21;4.80;99.90
52899;DHT22;38763;53.096;6.062;2023-12-14T05:27:47;4.70;99.90
52899;DHT22;38763;53.096;6.062;2023-12-14T05:30:13;4.70;99.90
52899;DHT22;38763;53.096;6.062;2023-12-14T05:32:38;4.70;99.90
52899;DHT22;38763;53.096;6.062;2023-12-14T05:35:05;4.70;99.90
52899;DHT22;38763;53.096;6.062;2023-12-14T05:37:31;4.70;99.90
52899;DHT22;38763;53.096;6.062;2023-12-14T05:39:56;4.70;99.90
52899;DHT22;38763;53.096;6.062;2023-12-14T05:42:22;4.70;99.90
52899;DHT22;38763;53.096;6.062;2023-12-14T05:44:48;4.70;99.90
52899;DHT22;38763;53.096;6.062;2023-12-14T05:47:13;4.70;99.90
52899;DHT22;38763;53.096;6.062;2023-12-14T05:49:43;4.70;99.90
52899;DHT22;38763;53.096;6.062;2023-12-14T05:52:08;4.70;99.90
52899;DHT22;38763;53.096;6.062;2023-12-14T05:54:36;4.70;99.90
52899;DHT22;38763;53.096;6.062;2023-12-14T05:57:02;4.70;99.90
52899;DHT22;38763;53.096;6.062;2023-12-14T05:59:27;4.70;99.90
52899;DHT22;38763;53.096;6.062;2023-12-14T06:02:00;4.70;99.90
52899;DHT22;38763;53.096;6.062;2023-12-14T06:04:26;4.70;99.90
52899;DHT22;38763;53.096;6.062;2023-12-14T06:06:53;4.70;99.90
52899;DHT22;38763;53.096;6.062;2023-12-14T06:09:19;4.70;99.90
52899;DHT22;38763;53.096;6.062;2023-12-14T06:11:47;4.70;99.90
52899;DHT22;38763;53.096;6.062;2023-12-14T06:14:13;4.70;99.90
52899;DHT22;38763;53.096;6.062;2023-12-14T06:16:39;4.70;99.90
52899;DHT22;38763;53.096;6.062;2023-12-14T06:19:05;4.70;99.90
52899;DHT22;38763;53.096;6.062;2023-12-14T06:21:30;4.70;99.90
52899;DHT22;38763;53.096;6.062;2023-12-14T06:23:56;4.60;99.90
52899;DHT22;38763;53.096;6.062;2023-12-14T06:26:25;4.70;99.90
52899;DHT22;38763;53.096;6.062;2023-12-14T06:28:51;4.60;99.90
52899;DHT22;38763;53.096;6.062;2023-12-14T06:31:17;4.70;99.90
52899;DHT22;38763;53.096;6.062;2023-12-14T06:33:44;4.70;99.90
52899;DHT22;38763;53.096;6.062;2023-12-14T06:36:10;4.70;99.90
52899;DHT22;38763;53.096;6.062;2023-12-14T06:38:38;4.70;99.90
52899;DHT22;38763;53.096;6.062;2023-12-14T06:41:05;4.70;99.90
52899;DHT22;38763;53.096;6.062;2023-12-14T06:43:30;4.70;99.90
52899;DHT22;38763;53.096;6.062;2023-12-14T06:45:56;4.70;99.90
52899;DHT22;38763;53.096;6.062;2023-12-14T06:48:21;4.70;99.90
52899;DHT22;38763;53.096;6.062;2023-12-14T06:50:47;4.70;99.90
52899;DHT22;38763;53.096;6.062;2023-12-14T06:53:13;4.70;99.90
52899;DHT22;38763;53.096;6.062;2023-12-14T06:55:41;4.70;99.90
52899;DHT22;38763;53.096;6.062;2023-12-14T06:58:06;4.70;99.90
52899;DHT22;38763;53.096;6.062;2023-12-14T07:00:39;4.70;99.90
52899;DHT22;38763;53.096;6.062;2023-12-14T07:03:05;4.70;99.90
52899;DHT22;38763;53.096;6.062;2023-12-14T07:05:31;4.70;99.90
52899;DHT22;38763;53.096;6.062;2023-12-14T07:07:57;4.70;99.90
52899;DHT22;38763;53.096;6.062;2023-12-14T07:10:24;4.70;99.90
52899;DHT22;38763;53.096;6.062;2023-12-14T07:12:49;4.70;99.90
52899;DHT22;38763;53.096;6.062;2023-12-14T07:15:15;4.70;99.90
52899;DHT22;38763;53.096;6.062;2023-12-14T07:17:41;4.70;99.90
52899;DHT22;38763;53.096;6.062;2023-12-14T07:20:07;4.70;99.90
52899;DHT22;38763;53.096;6.062;2023-12-14T07:22:33;4.70;99.90
52899;DHT22;38763;53.096;6.062;2023-12-14T07:24:58;4.70;99.90
52899;DHT22;38763;53.096;6.062;2023-12-14T07:27:24;4.70;99.90
52899;DHT22;38763;53.096;6.062;2023-12-14T07:29:50;4.70;99.90
52899;DHT22;38763;53.096;6.062;2023-12-14T07:32:16;4.70;99.90
52899;DHT22;38763;53.096;6.062;2023-12-14T07:34:41;4.70;99.90
52899;DHT22;38763;53.096;6.062;2023-12-14T07:37:07;4.70;99.90
52899;DHT22;38763;53.096;6.062;2023-12-14T07:39:32;4.70;99.90
52899;DHT22;38763;53.096;6.062;2023-12-14T07:41:58;4.70;99.90
52899;DHT22;38763;53.096;6.062;2023-12-14T07:44:24;4.70;99.90
52899;DHT22;38763;53.096;6.062;2023-12-14T07:46:51;4.70;99.90
52899;DHT22;38763;53.096;6.062;2023-12-14T07:49:17;4.70;99.90
52899;DHT22;38763;53.096;6.062;2023-12-14T07:51:46;4.70;99.90
52899;DHT22;38763;53.096;6.062;2023-12-14T07:54:12;4.70;99.90
52899;DHT22;38763;53.096;6.062;2023-12-14T07:56:37;4.80;99.90
52899;DHT22;38763;53.096;6.062;2023-12-14T07:59:03;4.80;99.90
52899;DHT22;38763;53.096;6.062;2023-12-14T08:01:32;4.80;99.90
52899;DHT22;38763;53.096;6.062;2023-12-14T08:03:57;4.80;99.90
52899;DHT22;38763;53.096;6.062;2023-12-14T08:06:23;4.80;99.90
52899;DHT22;38763;53.096;6.062;2023-12-14T08:08:49;4.80;99.90
52899;DHT22;38763;53.096;6.062;2023-12-14T08:11:15;4.90;99.90
52899;DHT22;38763;53.096;6.062;2023-12-14T08:13:40;4.80;99.90
52899;DHT22;38763;53.096;6.062;2023-12-14T08:16:07;4.90;99.90
52899;DHT22;38763;53.096;6.062;2023-12-14T08:18:33;4.90;99.90
52899;DHT22;38763;53.096;6.062;2023-12-14T08:20:59;4.90;99.90
52899;DHT22;38763;53.096;6.062;2023-12-14T08:23:24;4.90;99.90
52899;DHT22;38763;53.096;6.062;2023-12-14T08:25:53;4.90;99.90
52899;DHT22;38763;53.096;6.062;2023-12-14T08:28:23;4.90;99.90
52899;DHT22;38763;53.096;6.062;2023-12-14T08:30:49;4.80;99.90
52899;DHT22;38763;53.096;6.062;2023-12-14T08:33:14;4.80;99.90
52899;DHT22;38763;53.096;6.062;2023-12-14T08:35:41;4.80;99.90
52899;DHT22;38763;53.096;6.062;2023-12-14T08:38:07;4.80;99.90
52899;DHT22;38763;53.096;6.062;2023-12-14T08:40:32;4.90;99.90
52899;DHT22;38763;53.096;6.062;2023-12-14T08:42:58;4.90;99.90
52899;DHT22;38763;53.096;6.062;2023-12-14T08:45:24;4.90;99.90
52899;DHT22;38763;53.096;6.062;2023-12-14T08:47:50;4.90;99.90
52899;DHT22;38763;53.096;6.062;2023-12-14T08:50:15;4.90;99.90
52899;DHT22;38763;53.096;6.062;2023-12-14T08:52:41;4.90;99.90
52899;DHT22;38763;53.096;6.062;2023-12-14T08:55:08;4.90;99.90
52899;DHT22;38763;53.096;6.062;2023-12-14T08:57:34;4.90;99.90
52899;DHT22;38763;53.096;6.062;2023-12-14T09:00:00;5.00;99.90
52899;DHT22;38763;53.096;6.062;2023-12-14T09:02:26;5.00;99.90
52899;DHT22;38763;53.096;6.062;2023-12-14T09:04:52;4.90;99.90
52899;DHT22;38763;53.096;6.062;2023-12-14T09:07:17;5.00;99.90
52899;DHT22;38763;53.096;6.062;2023-12-14T09:09:43;5.00;99.90
52899;DHT22;38763;53.096;6.062;2023-12-14T09:12:09;5.00;99.90
52899;DHT22;38763;53.096;6.062;2023-12-14T09:14:35;5.00;99.90
52899;DHT22;38763;53.096;6.062;2023-12-14T09:17:01;5.00;99.90
52899;DHT22;38763;53.096;6.062;2023-12-14T09:19:29;5.10;99.90
52899;DHT22;38763;53.096;6.062;2023-12-14T09:21:55;5.00;99.90
52899;DHT22;38763;53.096;6.062;2023-12-14T09:24:21;5.00;99.90
52899;DHT22;38763;53.096;6.062;2023-12-14T09:26:47;5.00;99.90
52899;DHT22;38763;53.096;6.062;2023-12-14T09:29:12;5.00;99.90
52899;DHT22;38763;53.096;6.062;2023-12-14T09:31:41;5.10;99.90
52899;DHT22;38763;53.096;6.062;2023-12-14T09:34:08;5.20;99.90
52899;DHT22;38763;53.096;6.062;2023-12-14T09:36:34;5.20;99.90
52899;DHT22;38763;53.096;6.062;2023-12-14T09:38:59;5.20;99.90
52899;DHT22;38763;53.096;6.062;2023-12-14T09:41:25;5.20;99.90
52899;DHT22;38763;53.096;6.062;2023-12-14T09:43:52;5.30;99.90
52899;DHT22;38763;53.096;6.062;2023-12-14T09:46:18;5.30;99.90
52899;DHT22;38763;53.096;6.062;2023-12-14T09:48:48;5.30;99.90
52899;DHT22;38763;53.096;6.062;2023-12-14T09:51:16;5.30;99.90
52899;DHT22;38763;53.096;6.062;2023-12-14T09:53:42;5.30;99.90
52899;DHT22;38763;53.096;6.062;2023-12-14T09:56:08;5.40;99.90
52899;DHT22;38763;53.096;6.062;2023-12-14T09:58:34;5.40;99.90
52899;DHT22;38763;53.096;6.062;2023-12-14T10:01:00;5.40;99.90
52899;DHT22;38763;53.096;6.062;2023-12-14T10:03:30;5.40;99.90
52899;DHT22;38763;53.096;6.062;2023-12-14T10:05:58;5.40;99.90
52899;DHT22;38763;53.096;6.062;2023-12-14T10:08:25;5.40;99.90
52899;DHT22;38763;53.096;6.062;2023-12-14T10:10:52;5.40;99.90
52899;DHT22;38763;53.096;6.062;2023-12-14T10:13:19;5.40;99.90
52899;DHT22;38763;53.096;6.062;2023-12-14T10:15:47;5.40;99.90
52899;DHT22;38763;53.096;6.062;2023-12-14T10:18:23;5.30;99.90
52899;DHT22;38763;53.096;6.062;2023-12-14T10:20:50;5.30;99.90
52899;DHT22;38763;53.096;6.062;2023-12-14T10:23:17;5.30;99.90
52899;DHT22;38763;53.096;6.062;2023-12-14T10:25:43;5.30;99.90
52899;DHT22;38763;53.096;6.062;2023-12-14T10:28:12;5.30;99.90
52899;DHT22;38763;53.096;6.062;2023-12-14T10:30:39;5.40;99.90
52899;DHT22;38763;53.096;6.062;2023-12-14T10:33:05;5.40;99.90
52899;DHT22;38763;53.096;6.062;2023-12-14T10:35:30;5.50;99.90
52899;DHT22;38763;53.096;6.062;2023-12-14T10:38:01;5.60;99.90
52899;DHT22;38763;53.096;6.062;2023-12-14T10:40:28;5.60;99.90
52899;DHT22;38763;53.096;6.062;2023-12-14T10:42:55;5.60;99.90
52899;DHT22;38763;53.096;6.062;2023-12-14T10:45:29;5.70;99.90
52899;DHT22;38763;53.096;6.062;2023-12-14T10:47:56;5.70;99.90
52899;DHT22;38763;53.096;6.062;2023-12-14T10:50:23;5.80;99.90
52899;DHT22;38763;53.096;6.062;2023-12-14T10:52:50;5.80;99.90
52899;DHT22;38763;53.096;6.062;2023-12-14T10:55:22;5.70;99.90
52899;DHT22;38763;53.096;6.062;2023-12-14T10:57:52;5.70;99.90
52899;DHT22;38763;53.096;6.062;2023-12-14T11:00:18;5.70;99.90
52899;DHT22;38763;53.096;6.062;2023-12-14T11:02:46;5.70;99.90
52899;DHT22;38763;53.096;6.062;2023-12-14T11:05:14;5.70;99.90
52899;DHT22;38763;53.096;6.062;2023-12-14T11:07:51;5.80;99.90
52899;DHT22;38763;53.096;6.062;2023-12-14T11:10:23;5.80;99.90
52899;DHT22;38763;53.096;6.062;2023-12-14T11:13:03;5.80;99.90
52899;DHT22;38763;53.096;6.062;2023-12-14T11:15:33;5.80;99.90
52899;DHT22;38763;53.096;6.062;2023-12-14T11:23:13;5.80;99.90
52899;DHT22;38763;53.096;6.062;2023-12-14T11:25:40;5.80;99.90
52899;DHT22;38763;53.096;6.062;2023-12-14T11:28:07;5.80;99.90
52899;DHT22;38763;53.096;6.062;2023-12-14T11:30:36;5.80;99.90
52899;DHT22;38763;53.096;6.062;2023-12-14T11:33:03;5.80;99.90
52899;DHT22;38763;53.096;6.062;2023-12-14T11:35:29;5.80;99.90
52899;DHT22;38763;53.096;6.062;2023-12-14T11:37:55;5.80;99.90
52899;DHT22;38763;53.096;6.062;2023-12-14T11:40:23;5.80;99.90
52899;DHT22;38763;53.096;6.062;2023-12-14T11:43:02;5.80;99.90
52899;DHT22;38763;53.096;6.062;2023-12-14T11:45:36;5.80;99.90
52899;DHT22;38763;53.096;6.062;2023-12-14T11:48:10;5.80;99.90
52899;DHT22;38763;53.096;6.062;2023-12-14T11:50:38;5.80;99.90
52899;DHT22;38763;53.096;6.062;2023-12-14T11:53:04;5.80;99.90
52899;DHT22;38763;53.096;6.062;2023-12-14T11:55:31;5.80;99.90
52899;DHT22;38763;53.096;6.062;2023-12-14T11:57:57;5.80;99.90
52899;DHT22;38763;53.096;6.062;2023-12-14T12:00:27;5.90;99.90
52899;DHT22;38763;53.096;6.062;2023-12-14T12:05:43;5.80;99.90
52899;DHT22;38763;53.096;6.062;2023-12-14T12:08:09;5.80;99.90
52899;DHT22;38763;53.096;6.062;2023-12-14T12:10:37;5.80;99.90
52899;DHT22;38763;53.096;6.062;2023-12-14T12:13:04;5.90;99.90
52899;DHT22;38763;53.096;6.062;2023-12-14T12:15:34;5.80;99.90
52899;DHT22;38763;53.096;6.062;2023-12-14T12:18:12;5.80;99.90
52899;DHT22;38763;53.096;6.062;2023-12-14T12:20:38;5.80;99.90
52899;DHT22;38763;53.096;6.062;2023-12-14T12:23:04;5.80;99.90
52899;DHT22;38763;53.096;6.062;2023-12-14T12:25:30;5.80;99.90
52899;DHT22;38763;53.096;6.062;2023-12-14T12:27:57;5.80;99.90
52899;DHT22;38763;53.096;6.062;2023-12-14T12:30:23;5.80;99.90
52899;DHT22;38763;53.096;6.062;2023-12-14T12:32:49;5.80;99.90
52899;DHT22;38763;53.096;6.062;2023-12-14T12:35:20;5.80;99.90
52899;DHT22;38763;53.096;6.062;2023-12-14T12:37:46;5.90;99.90
52899;DHT22;38763;53.096;6.062;2023-12-14T12:40:12;5.80;99.90
52899;DHT22;38763;53.096;6.062;2023-12-14T12:42:40;5.80;99.90
52899;DHT22;38763;53.096;6.062;2023-12-14T12:45:06;5.90;99.90
52899;DHT22;38763;53.096;6.062;2023-12-14T12:47:32;5.90;99.90
52899;DHT22;38763;53.096;6.062;2023-12-14T12:49:58;5.90;99.90
52899;DHT22;38763;53.096;6.062;2023-12-14T12:52:23;5.90;99.90
52899;DHT22;38763;53.096;6.062;2023-12-14T12:54:50;5.90;99.90
52899;DHT22;38763;53.096;6.062;2023-12-14T12:57:16;5.90;99.90
52899;DHT22;38763;53.096;6.062;2023-12-14T12:59:41;5.80;99.90
52899;DHT22;38763;53.096;6.062;2023-12-14T13:02:07;5.90;99.90
52899;DHT22;38763;53.096;6.062;2023-12-14T13:04:33;5.90;99.90
52899;DHT22;38763;53.096;6.062;2023-12-14T13:06:59;5.90;99.90
52899;DHT22;38763;53.096;6.062;2023-12-14T13:09:27;6.00;99.90
52899;DHT22;38763;53.096;6.062;2023-12-14T13:11:53;5.90;99.90
52899;DHT22;38763;53.096;6.062;2023-12-14T13:14:18;5.90;99.90
52899;DHT22;38763;53.096;6.062;2023-12-14T13:16:44;5.90;99.90
52899;DHT22;38763;53.096;6.062;2023-12-14T13:19:10;5.90;99.90
52899;DHT22;38763;53.096;6.062;2023-12-14T13:21:36;5.90;99.90
52899;DHT22;38763;53.096;6.062;2023-12-14T13:24:02;5.90;99.90
52899;DHT22;38763;53.096;6.062;2023-12-14T13:26:28;5.90;99.90
52899;DHT22;38763;53.096;6.062;2023-12-14T13:28:54;5.90;99.90
52899;DHT22;38763;53.096;6.062;2023-12-14T13:31:20;5.90;99.90
52899;DHT22;38763;53.096;6.062;2023-12-14T13:33:46;5.90;99.90
52899;DHT22;38763;53.096;6.062;2023-12-14T13:36:13;5.90;99.90
52899;DHT22;38763;53.096;6.062;2023-12-14T13:38:39;5.90;99.90
52899;DHT22;38763;53.096;6.062;2023-12-14T13:41:04;5.90;99.90
52899;DHT22;38763;53.096;6.062;2023-12-14T13:43:31;5.90;99.90
52899;DHT22;38763;53.096;6.062;2023-12-14T13:45:57;5.90;99.90
52899;DHT22;38763;53.096;6.062;2023-12-14T13:48:26;5.80;99.90
52899;DHT22;38763;53.096;6.062;2023-12-14T13:50:56;5.80;99.90
52899;DHT22;38763;53.096;6.062;2023-12-14T13:53:22;5.80;99.90
52899;DHT22;38763;53.096;6.062;2023-12-14T13:55:50;5.80;99.90
52899;DHT22;38763;53.096;6.062;2023-12-14T13:58:16;5.80;99.90
52899;DHT22;38763;53.096;6.062;2023-12-14T14:00:43;5.80;99.90
52899;DHT22;38763;53.096;6.062;2023-12-14T14:03:09;5.80;99.90
52899;DHT22;38763;53.096;6.062;2023-12-14T14:05:35;5.80;99.90
52899;DHT22;38763;53.096;6.062;2023-12-14T14:08:00;5.80;99.90
52899;DHT22;38763;53.096;6.062;2023-12-14T14:10:26;5.90;99.90
52899;DHT22;38763;53.096;6.062;2023-12-14T14:12:52;5.90;99.90
52899;DHT22;38763;53.096;6.062;2023-12-14T14:15:18;5.90;99.90
52899;DHT22;38763;53.096;6.062;2023-12-14T14:17:45;5.90;99.90
52899;DHT22;38763;53.096;6.062;2023-12-14T14:20:13;5.90;99.90
52899;DHT22;38763;53.096;6.062;2023-12-14T14:22:39;5.90;99.90
52899;DHT22;38763;53.096;6.062;2023-12-14T14:25:05;5.80;99.90
52899;DHT22;38763;53.096;6.062;2023-12-14T14:27:35;5.70;99.90
52899;DHT22;38763;53.096;6.062;2023-12-14T14:30:01;5.70;99.90
52899;DHT22;38763;53.096;6.062;2023-12-14T14:32:27;5.60;99.90
52899;DHT22;38763;53.096;6.062;2023-12-14T14:34:52;5.50;99.90
52899;DHT22;38763;53.096;6.062;2023-12-14T14:37:20;5.50;99.90
52899;DHT22;38763;53.096;6.062;2023-12-14T14:39:46;5.50;99.90
52899;DHT22;38763;53.096;6.062;2023-12-14T14:42:13;5.40;99.90
52899;DHT22;38763;53.096;6.062;2023-12-14T14:44:39;5.40;99.90
52899;DHT22;38763;53.096;6.062;2023-12-14T14:47:05;5.30;99.90
52899;DHT22;38763;53.096;6.062;2023-12-14T14:49:31;5.20;99.90
52899;DHT22;38763;53.096;6.062;2023-12-14T14:51:57;5.20;99.90
52899;DHT22;38763;53.096;6.062;2023-12-14T14:54:23;5.20;99.90
52899;DHT22;38763;53.096;6.062;2023-12-14T14:56:48;5.10;99.90
52899;DHT22;38763;53.096;6.062;2023-12-14T14:59:14;5.10;99.90
52899;DHT22;38763;53.096;6.062;2023-12-14T15:01:41;5.10;99.90
52899;DHT22;38763;53.096;6.062;2023-12-14T15:04:07;5.10;99.90
52899;DHT22;38763;53.096;6.062;2023-12-14T15:06:33;5.10;99.90
52899;DHT22;38763;53.096;6.062;2023-12-14T15:08:59;5.10;99.90
52899;DHT22;38763;53.096;6.062;2023-12-14T15:11:25;5.10;99.90
52899;DHT22;38763;53.096;6.062;2023-12-14T15:13:51;5.10;99.90
52899;DHT22;38763;53.096;6.062;2023-12-14T15:16:17;5.00;99.90
52899;DHT22;38763;53.096;6.062;2023-12-14T15:18:44;5.10;99.90
52899;DHT22;38763;53.096;6.062;2023-12-14T15:21:13;5.10;99.90
52899;DHT22;38763;53.096;6.062;2023-12-14T15:23:38;5.10;99.90
52899;DHT22;38763;53.096;6.062;2023-12-14T15:26:05;5.00;99.90
52899;DHT22;38763;53.096;6.062;2023-12-14T15:28:33;5.00;99.90
52899;DHT22;38763;53.096;6.062;2023-12-14T15:30:59;5.00;99.90
52899;DHT22;38763;53.096;6.062;2023-12-14T15:33:24;5.00;99.90
52899;DHT22;38763;53.096;6.062;2023-12-14T15:35:51;4.90;99.90
52899;DHT22;38763;53.096;6.062;2023-12-14T15:38:17;4.90;99.90
52899;DHT22;38763;53.096;6.062;2023-12-14T15:40:42;4.90;99.90
52899;DHT22;38763;53.096;6.062;2023-12-14T15:43:08;4.90;99.90
52899;DHT22;38763;53.096;6.062;2023-12-14T15:45:34;4.90;99.90
52899;DHT22;38763;53.096;6.062;2023-12-14T15:48:03;4.90;99.90
52899;DHT22;38763;53.096;6.062;2023-12-14T15:50:29;5.00;99.90